Time;durP1;ratioP1;P1;durP2;ratioP2;P2;SDS_P1;SDS_P2;PMS_P1;PMS_P2;Temp;Humidity;BMP_temperature;BMP_pressure;BME280_temperature;BME280_humidity;BME280_pressure;Samples;Min_cycle;Max_cycle;Signal;HPM_P1;HPM_P2
2023/04/19 00:00:51;;;;;;;10.70;8.05;;;8.40;99.90;;;;;;5098556;28;20043;-75
2023/04/19 00:03:16;;;;;;;12.65;8.63;;;8.40;99.90;;;;;;5099217;28;20037;-76
2023/04/19 00:05:43;;;;;;;13.50;9.15;;;8.40;99.90;;;;;;5098668;28;20036;-76
2023/04/19 00:08:09;;;;;;;10.63;8.10;;;8.40;99.90;;;;;;5098154;28;20051;-76
2023/04/19 00:10:34;;;;;;;11.45;7.82;;;8.40;99.90;;;;;;5102339;28;20023;-77
2023/04/19 00:13:01;;;;;;;11.23;8.48;;;8.40;99.90;;;;;;5098844;28;20020;-76
2023/04/19 00:15:27;;;;;;;10.93;8.30;;;8.40;99.90;;;;;;5103979;28;20091;-77
2023/04/19 00:17:52;;;;;;;10.05;7.93;;;8.40;99.90;;;;;;5106710;28;20038;-75
2023/04/19 00:20:19;;;;;;;9.27;6.70;;;8.30;99.90;;;;;;5096625;28;20028;-76
2023/04/19 00:22:45;;;;;;;8.95;6.53;;;8.40;99.90;;;;;;5098101;28;20028;-77
2023/04/19 00:25:10;;;;;;;6.93;6.03;;;8.40;99.90;;;;;;5098011;28;20040;-76
2023/04/19 00:27:36;;;;;;;11.60;9.00;;;8.30;99.90;;;;;;5098202;28;20036;-77
2023/04/19 00:30:02;;;;;;;10.52;8.18;;;8.30;99.90;;;;;;5097222;28;20052;-76
2023/04/19 00:32:28;;;;;;;7.63;6.82;;;8.30;99.90;;;;;;5097429;28;20023;-77
2023/04/19 00:34:54;;;;;;;10.63;9.07;;;8.30;99.90;;;;;;5096815;28;20039;-77
2023/04/19 00:37:20;;;;;;;9.70;7.75;;;8.30;99.90;;;;;;5095944;28;20009;-76
2023/04/19 00:39:46;;;;;;;8.88;6.90;;;8.30;99.90;;;;;;5092196;28;20101;-78
2023/04/19 00:42:11;;;;;;;9.48;7.72;;;8.30;99.90;;;;;;5096219;28;20073;-77
2023/04/19 00:44:37;;;;;;;10.77;8.00;;;8.30;99.90;;;;;;5096245;28;20012;-76
2023/04/19 00:47:03;;;;;;;13.23;8.30;;;8.30;99.90;;;;;;5108828;28;20038;-78
2023/04/19 00:49:29;;;;;;;11.48;8.75;;;8.30;99.90;;;;;;5108021;28;20013;-77
2023/04/19 00:51:55;;;;;;;9.77;7.82;;;8.30;99.90;;;;;;5097294;28;20024;-76
2023/04/19 00:54:22;;;;;;;8.07;6.88;;;8.20;99.90;;;;;;5096328;28;20036;-78
2023/04/19 00:56:48;;;;;;;8.50;6.85;;;8.20;99.90;;;;;;5095699;28;20028;-76
2023/04/19 00:59:14;;;;;;;7.40;5.47;;;8.20;99.90;;;;;;5095761;28;20027;-77
2023/04/19 01:01:40;;;;;;;9.93;8.20;;;8.20;99.90;;;;;;5093917;28;20029;-76
2023/04/19 01:04:07;;;;;;;9.10;7.57;;;8.20;99.90;;;;;;5094377;28;20067;-77
2023/04/19 01:06:34;;;;;;;14.90;8.88;;;8.20;99.90;;;;;;5094337;28;20082;-77
2023/04/19 01:09:00;;;;;;;8.90;7.95;;;8.20;99.90;;;;;;5091261;28;20477;-75
2023/04/19 01:11:27;;;;;;;10.55;8.00;;;8.20;99.90;;;;;;5092431;28;20043;-75
2023/04/19 01:13:55;;;;;;;10.85;8.20;;;8.20;99.90;;;;;;5092269;28;20024;-75
2023/04/19 01:16:21;;;;;;;11.32;7.80;;;8.20;99.90;;;;;;5099475;28;20000;-77
2023/04/19 01:18:46;;;;;;;12.40;9.05;;;8.20;99.90;;;;;;5108470;28;20184;-77
2023/04/19 01:21:12;;;;;;;14.27;10.60;;;8.10;99.90;;;;;;5098332;28;20023;-76
2023/04/19 01:23:38;;;;;;;11.88;10.02;;;8.10;99.90;;;;;;5096150;28;20021;-77
2023/04/19 01:26:04;;;;;;;11.27;8.90;;;8.10;99.90;;;;;;5091928;28;20128;-77
2023/04/19 01:28:30;;;;;;;10.63;9.20;;;8.10;99.90;;;;;;5090127;28;20056;-78
2023/04/19 01:30:56;;;;;;;12.15;9.73;;;8.10;99.90;;;;;;5088587;28;20060;-77
2023/04/19 01:33:22;;;;;;;12.40;10.18;;;8.10;99.90;;;;;;5090608;28;20066;-77
2023/04/19 01:35:48;;;;;;;15.73;11.40;;;8.10;99.90;;;;;;5088893;28;20059;-76
2023/04/19 01:38:17;;;;;;;13.73;10.10;;;8.10;99.90;;;;;;5089217;28;20021;-76
2023/04/19 01:40:43;;;;;;;12.70;10.57;;;8.10;99.90;;;;;;5094261;28;20102;-77
2023/04/19 01:43:11;;;;;;;12.90;10.45;;;8.10;99.90;;;;;;5091849;28;20138;-76
2023/04/19 01:45:37;;;;;;;10.05;8.32;;;8.10;99.90;;;;;;5100932;28;20010;-76
2023/04/19 01:48:06;;;;;;;9.77;8.23;;;8.10;99.90;;;;;;5104462;28;20688;-76
2023/04/19 01:50:32;;;;;;;7.47;6.50;;;8.10;99.90;;;;;;5109451;28;20035;-76
2023/04/19 01:52:58;;;;;;;11.48;9.77;;;8.10;99.90;;;;;;5083028;28;20029;-76
2023/04/19 01:55:24;;;;;;;13.30;10.93;;;8.10;99.90;;;;;;5080259;28;20141;-77
2023/04/19 01:57:51;;;;;;;11.48;8.95;;;8.20;99.90;;;;;;5082643;28;20032;-77
2023/04/19 02:00:17;;;;;;;10.88;8.38;;;8.10;99.90;;;;;;5082860;28;20009;-77
2023/04/19 02:02:43;;;;;;;11.57;7.82;;;8.20;99.90;;;;;;5080624;28;20028;-77
2023/04/19 02:05:09;;;;;;;8.32;6.78;;;8.20;99.90;;;;;;5078638;28;20130;-76
2023/04/19 02:07:35;;;;;;;7.93;6.40;;;8.10;99.90;;;;;;5080401;28;20021;-76
2023/04/19 02:10:00;;;;;;;7.00;6.22;;;8.10;99.90;;;;;;5087526;28;20020;-77
2023/04/19 02:12:30;;;;;;;7.03;6.30;;;8.10;99.90;;;;;;5088358;28;20025;-77
2023/04/19 02:14:56;;;;;;;6.82;5.53;;;8.00;99.90;;;;;;5084349;28;20090;-77
2023/04/19 02:17:25;;;;;;;8.25;6.57;;;8.00;99.90;;;;;;5091830;28;20075;-78
2023/04/19 02:19:51;;;;;;;6.68;5.70;;;8.00;99.90;;;;;;5107454;28;20035;-76
2023/04/19 02:22:20;;;;;;;7.47;6.05;;;7.90;99.90;;;;;;5103645;28;20051;-76
2023/04/19 02:24:46;;;;;;;9.13;7.15;;;7.90;99.90;;;;;;5081488;28;20037;-76
2023/04/19 02:27:12;;;;;;;7.53;6.50;;;7.90;99.90;;;;;;5080799;28;20025;-76
2023/04/19 02:29:38;;;;;;;6.80;6.03;;;7.90;99.90;;;;;;5082046;28;20023;-77
2023/04/19 02:32:05;;;;;;;7.70;5.95;;;7.90;99.90;;;;;;5078996;28;20020;-76
2023/04/19 02:34:35;;;;;;;6.75;5.90;;;7.90;99.90;;;;;;5077793;28;20029;-77
2023/04/19 02:37:00;;;;;;;6.40;5.22;;;7.80;99.90;;;;;;5081148;28;20662;-78
2023/04/19 02:39:26;;;;;;;6.55;5.43;;;7.90;99.90;;;;;;5084718;28;20105;-78
2023/04/19 02:41:52;;;;;;;9.68;6.97;;;7.80;99.90;;;;;;5081681;28;20505;-78
2023/04/19 02:44:18;;;;;;;7.70;6.55;;;7.80;99.90;;;;;;5067480;28;20071;-78
2023/04/19 02:46:50;;;;;;;8.68;7.53;;;7.80;99.90;;;;;;5088121;28;20347;-78
2023/04/19 02:49:17;;;;;;;12.93;10.57;;;7.70;99.90;;;;;;5099498;28;20028;-77
2023/04/19 02:51:43;;;;;;;12.98;10.15;;;7.80;99.90;;;;;;5091965;28;20028;-77
2023/04/19 02:54:08;;;;;;;11.20;9.27;;;7.70;99.90;;;;;;5081524;28;20031;-76
2023/04/19 02:56:34;;;;;;;12.50;9.73;;;7.70;99.90;;;;;;5077411;28;20029;-78
2023/04/19 02:59:00;;;;;;;11.15;8.63;;;7.70;99.90;;;;;;5079192;28;20029;-78
2023/04/19 03:01:27;;;;;;;11.98;9.07;;;;;;;;;;5078151;28;20071;-77
2023/04/19 03:03:52;;;;;;;12.77;10.18;;;7.70;99.90;;;;;;5079838;28;20020;-76
2023/04/19 03:06:18;;;;;;;11.98;9.43;;;7.70;99.90;;;;;;5083708;28;20027;-79
2023/04/19 03:08:44;;;;;;;13.70;10.80;;;7.70;99.90;;;;;;5083273;28;20044;-78
2023/04/19 03:11:10;;;;;;;13.45;9.95;;;7.70;99.90;;;;;;5086443;28;20095;-78
2023/04/19 03:13:36;;;;;;;16.48;12.45;;;7.70;99.90;;;;;;5084305;28;20048;-78
2023/04/19 03:16:02;;;;;;;15.43;11.50;;;7.70;99.90;;;;;;5089322;28;20017;-79
2023/04/19 03:18:28;;;;;;;18.33;13.02;;;7.60;99.90;;;;;;5099249;28;20024;-77
2023/04/19 03:20:54;;;;;;;21.23;13.88;;;7.60;99.90;;;;;;5103506;28;20021;-78
2023/04/19 03:23:20;;;;;;;19.25;13.50;;;7.60;99.90;;;;;;5090461;28;20039;-79
2023/04/19 03:25:45;;;;;;;17.85;12.77;;;7.60;99.90;;;;;;5084158;28;20504;-79
2023/04/19 03:28:11;;;;;;;21.60;15.52;;;7.60;99.90;;;;;;5082635;28;20035;-78
2023/04/19 03:30:37;;;;;;;20.30;14.07;;;7.60;99.90;;;;;;5083139;28;20033;-78
2023/04/19 03:33:02;;;;;;;18.02;12.60;;;7.60;99.90;;;;;;5082389;28;20042;-78
2023/04/19 03:35:29;;;;;;;20.92;13.90;;;7.60;99.90;;;;;;5082167;28;20116;-79
2023/04/19 03:37:55;;;;;;;19.38;13.00;;;7.60;99.90;;;;;;5082980;28;20028;-78
2023/04/19 03:40:21;;;;;;;24.55;15.90;;;7.60;99.90;;;;;;5084669;28;20397;-78
2023/04/19 03:42:46;;;;;;;19.95;14.40;;;7.70;99.90;;;;;;5081276;28;20040;-79
2023/04/19 03:45:12;;;;;;;21.08;15.13;;;7.70;99.90;;;;;;5086506;28;20148;-80
2023/04/19 03:47:38;;;;;;;17.98;13.52;;;7.70;99.90;;;;;;5095589;28;20020;-80
2023/04/19 03:50:04;;;;;;;17.42;12.10;;;7.80;99.90;;;;;;5104257;28;20016;-80
2023/04/19 03:52:30;;;;;;;18.13;12.63;;;7.80;99.90;;;;;;5101824;28;20404;-81
2023/04/19 03:54:55;;;;;;;19.23;13.48;;;7.80;99.90;;;;;;5084506;28;20028;-80
2023/04/19 03:57:21;;;;;;;18.23;13.13;;;7.80;99.90;;;;;;5081544;28;20453;-80
2023/04/19 03:59:47;;;;;;;15.63;10.88;;;7.80;99.90;;;;;;5082670;28;20116;-79
2023/04/19 04:02:12;;;;;;;16.17;11.25;;;7.80;99.90;;;;;;5082446;28;20175;-80
2023/04/19 04:04:38;;;;;;;13.57;9.60;;;7.90;99.90;;;;;;5081429;28;20099;-76
2023/04/19 04:07:04;;;;;;;12.70;9.93;;;7.90;99.90;;;;;;5062056;28;20021;-78
2023/04/19 04:09:30;;;;;;;11.32;8.57;;;7.90;99.90;;;;;;5060416;28;20021;-77
2023/04/19 04:11:55;;;;;;;13.52;10.63;;;7.90;99.90;;;;;;5058717;28;20029;-78
2023/04/19 04:14:21;;;;;;;16.58;11.18;;;7.90;99.90;;;;;;5072287;28;20028;-77
2023/04/19 04:16:47;;;;;;;14.48;10.63;;;7.90;99.90;;;;;;5093048;28;20538;-78
2023/04/19 04:19:12;;;;;;;16.08;12.10;;;7.90;99.90;;;;;;5078104;28;20033;-77
2023/04/19 04:21:38;;;;;;;13.55;10.27;;;7.90;99.90;;;;;;5077858;28;20036;-77
2023/04/19 04:24:04;;;;;;;14.57;10.15;;;7.90;99.90;;;;;;5075340;28;20040;-77
2023/04/19 04:26:30;;;;;;;12.88;9.93;;;7.90;99.90;;;;;;5077600;28;20035;-77
2023/04/19 04:28:56;;;;;;;15.95;10.52;;;7.90;99.90;;;;;;5076950;28;20444;-77
2023/04/19 04:31:22;;;;;;;12.45;9.80;;;7.90;99.90;;;;;;5078175;28;20036;-78
2023/04/19 04:33:48;;;;;;;15.48;11.23;;;7.90;99.90;;;;;;5070634;28;20052;-77
2023/04/19 04:36:14;;;;;;;16.27;12.88;;;7.90;99.90;;;;;;5058760;28;20025;-78
2023/04/19 04:38:40;;;;;;;16.20;12.27;;;7.90;99.90;;;;;;5059218;28;20107;-78
2023/04/19 04:41:06;;;;;;;15.32;11.50;;;7.90;99.90;;;;;;5079934;28;20028;-78
2023/04/19 04:43:32;;;;;;;15.48;12.05;;;7.90;99.90;;;;;;5078260;28;20031;-78
2023/04/19 04:45:58;;;;;;;17.10;11.48;;;7.90;99.90;;;;;;5087247;28;20299;-78
2023/04/19 04:48:24;;;;;;;17.23;13.55;;;7.90;99.90;;;;;;5080641;28;20169;-77
2023/04/19 04:50:50;;;;;;;17.60;13.68;;;7.90;99.90;;;;;;5082137;28;20422;-79
2023/04/19 04:53:16;;;;;;;18.60;12.75;;;7.90;99.90;;;;;;5059934;28;20036;-78
2023/04/19 04:55:41;;;;;;;19.48;14.50;;;7.80;99.90;;;;;;5058678;28;20021;-77
2023/04/19 04:58:07;;;;;;;20.55;15.27;;;7.80;99.90;;;;;;5060112;28;20115;-77
2023/04/19 05:00:33;;;;;;;19.80;14.25;;;7.80;99.90;;;;;;5058828;28;20017;-77
2023/04/19 05:02:59;;;;;;;20.83;15.02;;;7.70;99.90;;;;;;5075648;28;20398;-77
2023/04/19 05:05:25;;;;;;;17.92;12.98;;;7.70;99.90;;;;;;5072045;28;20032;-78
2023/04/19 05:07:50;;;;;;;18.52;11.70;;;7.70;99.90;;;;;;5079732;28;20047;-77
2023/04/19 05:10:16;;;;;;;13.25;10.30;;;7.70;99.90;;;;;;5073711;28;20491;-78
2023/04/19 05:12:42;;;;;;;14.05;9.25;;;7.70;99.90;;;;;;5059520;28;20028;-78
2023/04/19 05:15:08;;;;;;;10.80;8.55;;;7.80;99.90;;;;;;5076376;28;20090;-80
2023/04/19 05:17:33;;;;;;;12.73;10.13;;;7.90;99.90;;;;;;5095014;28;20441;-77
2023/04/19 05:19:59;;;;;;;14.25;11.60;;;7.90;99.90;;;;;;5102247;28;20035;-78
2023/04/19 05:22:26;;;;;;;14.95;10.90;;;7.90;99.90;;;;;;5092852;28;20056;-77
2023/04/19 05:24:51;;;;;;;14.75;10.95;;;7.90;99.90;;;;;;5078601;28;20036;-78
2023/04/19 05:27:17;;;;;;;15.48;11.73;;;7.90;99.90;;;;;;5089151;28;20072;-77
2023/04/19 05:29:43;;;;;;;17.85;12.27;;;8.00;99.90;;;;;;5093934;28;20044;-77
2023/04/19 05:32:09;;;;;;;16.17;12.27;;;8.00;99.90;;;;;;5093033;28;20029;-77
2023/04/19 05:34:35;;;;;;;15.93;12.07;;;8.00;99.90;;;;;;5092970;28;20035;-77
2023/04/19 05:37:04;;;;;;;16.98;11.48;;;8.10;99.90;;;;;;5093565;28;20047;-78
2023/04/19 05:39:30;;;;;;;19.98;14.32;;;8.10;99.90;;;;;;5083776;28;20486;-77
2023/04/19 05:41:56;;;;;;;20.42;13.32;;;8.10;99.90;;;;;;5083329;28;20028;-78
2023/04/19 05:44:21;;;;;;;23.55;16.13;;;8.10;99.90;;;;;;5076169;28;20028;-77
2023/04/19 05:46:47;;;;;;;21.70;16.63;;;8.10;99.90;;;;;;5086511;28;20025;-77
2023/04/19 05:49:13;;;;;;;21.25;13.95;;;8.10;99.90;;;;;;5102647;28;20031;-77
2023/04/19 05:51:41;;;;;;;19.83;13.15;;;8.20;99.90;;;;;;5103809;28;20041;-77
2023/04/19 05:54:11;;;;;;;17.10;12.57;;;8.20;99.90;;;;;;5079131;28;20075;-77
2023/04/19 05:56:37;;;;;;;15.40;11.77;;;8.20;99.90;;;;;;5086149;28;20035;-80
2023/04/19 05:59:02;;;;;;;16.60;11.18;;;8.20;99.90;;;;;;5089490;28;20059;-78
2023/04/19 06:01:28;;;;;;;18.52;12.52;;;8.20;99.90;;;;;;5089748;28;20040;-77
2023/04/19 06:03:54;;;;;;;18.38;13.30;;;8.30;99.90;;;;;;5083903;28;20174;-77
2023/04/19 06:06:21;;;;;;;16.20;11.90;;;8.30;99.90;;;;;;5080867;28;20095;-77
2023/04/19 06:08:47;;;;;;;14.00;10.38;;;8.30;99.90;;;;;;5077449;28;20488;-77
2023/04/19 06:11:12;;;;;;;14.20;10.23;;;8.30;99.90;;;;;;5086737;28;20048;-78
2023/04/19 06:13:38;;;;;;;16.25;10.48;;;8.30;99.90;;;;;;5075173;28;20024;-78
2023/04/19 06:16:04;;;;;;;14.02;9.82;;;8.40;99.90;;;;;;5082398;28;20084;-77
2023/04/19 06:18:30;;;;;;;18.83;13.30;;;8.40;99.90;;;;;;5077108;28;20025;-77
2023/04/19 06:20:56;;;;;;;18.67;13.05;;;8.40;99.90;;;;;;5056560;28;20082;-77
2023/04/19 06:23:22;;;;;;;21.45;15.13;;;8.30;99.90;;;;;;5057692;28;20028;-77
2023/04/19 06:25:48;;;;;;;20.83;12.85;;;8.30;99.90;;;;;;5057380;28;20017;-77
2023/04/19 06:28:14;;;;;;;18.20;12.95;;;8.30;99.90;;;;;;5071320;28;20021;-75
2023/04/19 06:30:40;;;;;;;21.92;13.73;;;8.30;99.90;;;;;;5075081;28;20060;-74
2023/04/19 06:33:05;;;;;;;18.25;12.77;;;8.30;99.90;;;;;;5065027;28;20020;-76
2023/04/19 06:35:31;;;;;;;22.65;15.10;;;8.30;99.90;;;;;;5075960;28;20393;-77
2023/04/19 06:37:58;;;;;;;20.80;14.60;;;8.30;99.90;;;;;;5076192;28;20056;-77
2023/04/19 06:40:25;;;;;;;21.90;15.10;;;8.30;99.90;;;;;;5085280;28;20024;-76
2023/04/19 06:42:51;;;;;;;20.45;14.05;;;8.30;99.90;;;;;;5082281;28;20340;-76
2023/04/19 06:45:17;;;;;;;16.50;12.30;;;8.20;99.90;;;;;;5092032;28;20020;-76
2023/04/19 06:47:43;;;;;;;15.82;11.25;;;8.30;99.90;;;;;;5102361;28;20023;-75
2023/04/19 06:50:10;;;;;;;16.75;11.32;;;8.40;99.90;;;;;;5097480;28;20008;-75
2023/04/19 06:52:35;;;;;;;16.20;11.20;;;8.40;99.90;;;;;;5092579;28;20008;-76
2023/04/19 06:55:01;;;;;;;18.20;12.80;;;8.40;99.90;;;;;;5089862;28;20051;-76
2023/04/19 06:57:27;;;;;;;22.48;14.23;;;8.40;99.90;;;;;;5085996;28;20405;-77
2023/04/19 06:59:55;;;;;;;17.83;11.60;;;8.40;99.90;;;;;;5081233;28;20060;-76
2023/04/19 07:02:21;;;;;;;16.42;11.25;;;8.50;99.90;;;;;;5080766;28;20024;-76
2023/04/19 07:04:46;;;;;;;15.20;10.48;;;8.50;99.90;;;;;;5080195;28;20622;-76
2023/04/19 07:07:12;;;;;;;13.98;10.25;;;8.60;99.90;;;;;;5081010;28;20048;-76
2023/04/19 07:09:38;;;;;;;12.13;8.48;;;8.60;99.90;;;;;;5081499;28;20036;-77
2023/04/19 07:12:05;;;;;;;10.10;7.80;;;8.70;99.90;;;;;;5079227;28;20028;-77
2023/04/19 07:14:31;;;;;;;8.18;6.80;;;8.70;99.90;;;;;;5078951;28;20115;-77
2023/04/19 07:16:57;;;;;;;11.30;8.05;;;8.80;99.90;;;;;;5092526;28;20051;-76
2023/04/19 07:19:22;;;;;;;11.13;8.13;;;8.80;99.90;;;;;;5102465;28;20067;-78
2023/04/19 07:21:48;;;;;;;10.00;7.78;;;8.70;99.90;;;;;;5089566;28;20052;-77
2023/04/19 07:24:15;;;;;;;12.05;9.45;;;8.70;99.90;;;;;;5079595;28;20029;-77
2023/04/19 07:26:40;;;;;;;12.13;9.00;;;8.70;99.90;;;;;;5082839;28;20075;-77
2023/04/19 07:29:06;;;;;;;12.30;8.57;;;8.70;99.90;;;;;;5083163;28;20440;-78
2023/04/19 07:31:32;;;;;;;12.05;8.10;;;8.70;99.90;;;;;;5079753;28;20369;-78
2023/04/19 07:33:58;;;;;;;9.68;7.20;;;8.80;99.90;;;;;;5078109;28;20054;-77
2023/04/19 07:36:24;;;;;;;8.18;6.50;;;8.90;99.90;;;;;;5080945;28;20115;-78
2023/04/19 07:38:49;;;;;;;8.32;6.10;;;9.10;99.90;;;;;;5081685;28;20075;-77
2023/04/19 07:41:15;;;;;;;8.57;6.65;;;9.40;99.90;;;;;;5079903;28;20032;-78
2023/04/19 07:43:41;;;;;;;8.80;6.90;;;9.80;99.90;;;;;;5084071;28;20027;-76
2023/04/19 07:46:11;;;;;;;7.53;6.32;;;10.10;99.90;;;;;;5088996;28;20080;-77
2023/04/19 07:48:40;;;;;;;8.75;7.22;;;10.30;99.90;;;;;;5081183;28;20080;-77
2023/04/19 07:51:18;;;;;;;9.90;7.55;;;10.40;99.90;;;;;;5085404;28;20031;-78
2023/04/19 07:53:46;;;;;;;8.00;5.75;;;10.50;99.90;;;;;;5088808;28;20020;-78
2023/04/19 07:56:13;;;;;;;7.25;5.50;;;10.90;99.90;;;;;;5089808;28;20031;-78
2023/04/19 07:58:40;;;;;;;7.65;5.70;;;11.50;99.90;;;;;;5087689;28;20385;-76
2023/04/19 08:01:06;;;;;;;7.22;5.78;;;11.90;99.90;;;;;;5093858;28;20027;-78
2023/04/19 08:03:36;;;;;;;11.55;7.63;;;12.00;99.00;;;;;;5082604;28;20025;-77
2023/04/19 08:06:04;;;;;;;9.75;7.07;;;11.90;97.90;;;;;;5092631;28;20040;-77
2023/04/19 08:08:30;;;;;;;8.15;6.68;;;11.80;97.70;;;;;;5091251;28;20028;-76
2023/04/19 08:10:56;;;;;;;7.05;5.40;;;11.80;97.80;;;;;;5083184;28;20119;-78
2023/04/19 08:13:22;;;;;;;6.38;5.07;;;11.90;97.80;;;;;;5072034;28;20052;-78
2023/04/19 08:15:48;;;;;;;4.40;3.95;;;12.10;97.70;;;;;;5085636;28;20092;-77
2023/04/19 08:18:13;;;;;;;5.75;4.97;;;12.40;97.40;;;;;;5094865;28;20024;-78
2023/04/19 08:20:41;;;;;;;6.30;5.43;;;12.40;96.50;;;;;;5102236;28;20062;-77
2023/04/19 08:23:07;;;;;;;8.32;6.65;;;12.20;95.90;;;;;;5095906;28;20033;-78
2023/04/19 08:25:34;;;;;;;9.23;7.32;;;11.80;95.80;;;;;;5080919;28;20028;-77
2023/04/19 08:28:00;;;;;;;10.90;8.25;;;11.40;96.10;;;;;;5082966;28;20025;-77
2023/04/19 08:30:26;;;;;;;18.70;13.60;;;11.20;96.60;;;;;;5080667;28;20493;-77
2023/04/19 08:32:52;;;;;;;15.60;12.10;;;11.00;96.60;;;;;;5081499;28;20480;-78
2023/04/19 08:35:17;;;;;;;16.20;11.65;;;11.00;97.20;;;;;;5080060;28;20055;-78
2023/04/19 08:37:43;;;;;;;16.52;10.82;;;10.90;97.30;;;;;;5081229;28;20033;-77
2023/04/19 08:40:10;;;;;;;19.73;12.15;;;10.90;97.60;;;;;;5083744;28;20025;-78
2023/04/19 08:42:36;;;;;;;18.35;12.65;;;10.90;97.60;;;;;;5078971;28;20111;-77
2023/04/19 08:45:05;;;;;;;23.60;15.43;;;10.90;97.70;;;;;;5080946;28;20028;-78
2023/04/19 08:47:35;;;;;;;19.23;13.90;;;10.90;97.60;;;;;;5091338;28;20069;-77
2023/04/19 08:50:03;;;;;;;19.48;12.63;;;11.00;97.50;;;;;;5082708;28;20115;-77
2023/04/19 08:52:29;;;;;;;18.27;12.50;;;11.00;97.50;;;;;;5065714;28;20615;-77
2023/04/19 08:54:56;;;;;;;15.85;10.30;;;11.20;97.50;;;;;;5058348;28;20048;-76
2023/04/19 08:57:21;;;;;;;20.40;14.93;;;11.30;97.40;;;;;;5056470;28;20428;-77
2023/04/19 08:59:51;;;;;;;17.65;12.23;;;11.40;96.60;;;;;;5056576;28;20059;-76
2023/04/19 09:02:16;;;;;;;15.77;11.48;;;11.40;96.80;;;;;;5054328;28;20021;-77
2023/04/19 09:04:42;;;;;;;13.35;10.32;;;11.50;96.50;;;;;;5058086;28;20389;-75
2023/04/19 09:07:07;;;;;;;14.10;9.45;;;11.50;96.70;;;;;;5056799;28;20375;-76
2023/04/19 09:09:35;;;;;;;15.60;10.52;;;11.60;96.60;;;;;;5056391;28;20013;-77
2023/04/19 09:12:01;;;;;;;10.88;8.70;;;11.60;96.30;;;;;;5061691;28;20504;-76
2023/04/19 09:14:28;;;;;;;11.40;8.40;;;11.80;96.20;;;;;;5075636;28;20107;-77
2023/04/19 09:17:10;;;;;;;15.68;10.63;;;11.90;96.20;;;;;;5086950;28;20036;-76
2023/04/19 09:19:46;;;;;;;15.85;10.77;;;12.00;95.40;;;;;;5096030;28;20028;-76
2023/04/19 09:22:13;;;;;;;10.80;8.55;;;12.20;95.20;;;;;;5092149;28;20024;-76
2023/04/19 09:24:39;;;;;;;13.13;9.55;;;12.40;94.80;;;;;;5075291;28;20024;-76
2023/04/19 09:27:05;;;;;;;14.93;11.05;;;12.50;94.10;;;;;;5075583;28;20118;-76
2023/04/19 09:29:30;;;;;;;17.48;10.05;;;12.50;93.60;;;;;;5076417;28;20083;-76
2023/04/19 09:31:57;;;;;;;9.85;7.88;;;12.50;93.40;;;;;;5075965;28;20029;-76
2023/04/19 09:34:23;;;;;;;11.45;8.40;;;12.50;93.80;;;;;;5075153;28;20385;-77
2023/04/19 09:36:49;;;;;;;18.63;12.07;;;12.70;93.50;;;;;;5077352;28;20031;-77
2023/04/19 09:39:31;;;;;;;19.20;13.15;;;13.00;92.70;;;;;;5076426;28;20047;-77
2023/04/19 09:41:57;;;;;;;18.52;12.82;;;13.10;91.90;;;;;;5077170;28;20060;-77
2023/04/19 09:44:23;;;;;;;16.52;11.80;;;13.20;91.30;;;;;;5073974;28;20036;-76
2023/04/19 09:46:51;;;;;;;12.65;9.48;;;13.40;91.60;;;;;;5087404;28;20047;-77
2023/04/19 09:49:25;;;;;;;10.35;8.05;;;13.70;91.50;;;;;;5095800;28;20027;-76
2023/04/19 09:51:53;;;;;;;7.70;6.60;;;14.10;91.00;;;;;;5098223;28;20484;-76
2023/04/19 09:54:21;;;;;;;11.73;9.25;;;14.50;90.40;;;;;;5081746;28;20032;-76
2023/04/19 09:56:47;;;;;;;10.63;8.40;;;14.70;87.50;;;;;;5074778;28;20032;-76
2023/04/19 09:59:13;;;;;;;10.60;8.73;;;14.80;87.70;;;;;;5075002;28;20107;-77
2023/04/19 10:01:44;;;;;;;10.25;8.65;;;14.90;85.70;;;;;;5075559;28;20475;-77
2023/04/19 10:04:12;;;;;;;10.80;8.40;;;14.80;84.70;;;;;;5075226;28;20380;-77
2023/04/19 10:06:40;;;;;;;13.80;10.20;;;14.60;83.80;;;;;;5076531;28;20017;-76
2023/04/19 10:09:06;;;;;;;11.80;8.57;;;14.30;82.40;;;;;;5074252;28;20020;-76
2023/04/19 10:11:39;;;;;;;14.00;10.35;;;13.90;83.90;;;;;;5075433;28;20044;-76
2023/04/19 10:14:07;;;;;;;14.88;11.40;;;13.80;85.00;;;;;;5074778;28;20099;-75
2023/04/19 10:16:34;;;;;;;16.05;10.57;;;13.60;84.50;;;;;;5084295;28;20031;-76
2023/04/19 10:19:03;;;;;;;13.25;10.10;;;13.50;85.20;;;;;;5095499;28;20024;-76
2023/04/19 10:21:30;;;;;;;16.48;12.13;;;13.30;86.10;;;;;;5095498;28;20306;-77
2023/04/19 10:23:57;;;;;;;15.40;10.68;;;13.20;86.10;;;;;;5093602;28;20424;-76
2023/04/19 10:26:23;;;;;;;14.23;11.05;;;13.00;87.40;;;;;;5075476;28;20025;-77
2023/04/19 10:28:49;;;;;;;13.90;10.73;;;12.80;88.60;;;;;;5077547;28;20074;-75
2023/04/19 10:31:20;;;;;;;14.05;10.13;;;12.60;89.10;;;;;;5075432;28;20107;-76
2023/04/19 10:33:47;;;;;;;22.05;13.93;;;12.40;90.00;;;;;;5074944;28;20545;-77
2023/04/19 10:36:17;;;;;;;17.08;13.43;;;12.30;90.40;;;;;;5076691;28;20086;-76
2023/04/19 10:38:47;;;;;;;13.43;10.38;;;12.10;91.00;;;;;;5061807;28;20388;-77
2023/04/19 10:41:14;;;;;;;14.23;10.88;;;12.00;91.60;;;;;;5075942;28;20477;-77
2023/04/19 10:44:10;;;;;;;14.05;10.90;;;12.10;91.80;;;;;;5075581;28;20044;-76
2023/04/19 10:46:41;;;;;;;17.35;11.38;;;12.00;91.80;;;;;;5079762;28;20044;-76
2023/04/19 10:49:08;;;;;;;18.80;13.38;;;11.90;91.90;;;;;;5056507;28;20444;-76
2023/04/19 10:51:38;;;;;;;18.50;13.43;;;11.80;92.30;;;;;;5056308;28;20517;-77
2023/04/19 10:54:08;;;;;;;17.63;11.20;;;11.90;92.40;;;;;;5054863;28;20509;-76
2023/04/19 10:56:33;;;;;;;14.25;11.80;;;11.90;92.40;;;;;;5072665;28;20474;-77
2023/04/19 10:58:59;;;;;;;13.43;10.95;;;11.90;92.30;;;;;;5075933;28;20013;-77
2023/04/19 11:01:42;;;;;;;15.93;12.60;;;11.90;92.40;;;;;;5075281;28;20013;-77
2023/04/19 11:04:09;;;;;;;18.33;11.95;;;12.00;92.10;;;;;;5074380;28;20039;-76
2023/04/19 11:06:37;;;;;;;15.68;11.52;;;12.00;91.70;;;;;;5074888;28;20096;-77
2023/04/19 11:09:04;;;;;;;14.07;9.75;;;12.00;90.70;;;;;;5074507;28;20162;-77
2023/04/19 11:11:34;;;;;;;12.95;9.73;;;12.00;90.90;;;;;;5076439;28;20541;-77
2023/04/19 11:14:03;;;;;;;11.48;9.57;;;11.90;91.30;;;;;;5076452;28;20039;-76
2023/04/19 11:16:29;;;;;;;12.55;9.35;;;11.70;91.80;;;;;;5081401;28;20524;-76
2023/04/19 11:18:55;;;;;;;15.48;10.68;;;11.50;92.30;;;;;;5095533;28;20103;-76
2023/04/19 11:21:21;;;;;;;18.73;12.95;;;11.40;93.20;;;;;;5094619;28;20048;-76
2023/04/19 11:23:48;;;;;;;15.73;11.65;;;11.30;92.80;;;;;;5094880;28;20515;-76
2023/04/19 11:26:14;;;;;;;16.85;12.35;;;11.30;93.30;;;;;;5095159;28;20065;-77
2023/04/19 11:28:40;;;;;;;17.90;11.85;;;11.20;93.80;;;;;;5100996;28;20028;-76
2023/04/19 11:31:06;;;;;;;15.68;11.55;;;11.20;93.80;;;;;;5098926;28;20020;-76
2023/04/19 11:33:36;;;;;;;16.00;11.60;;;11.20;93.80;;;;;;5114238;22;20063;-80
2023/04/19 11:36:03;;;;;;;16.23;11.30;;;11.20;94.00;;;;;;5075432;28;20012;-79
2023/04/19 11:38:29;;;;;;;14.55;9.90;;;11.20;94.20;;;;;;5104877;28;20027;-79
2023/04/19 11:41:02;;;;;;;20.65;14.20;;;11.20;94.10;;;;;;5107605;28;20024;-80
2023/04/19 11:43:35;;;;;;;18.00;13.70;;;11.20;93.60;;;;;;5105703;28;20024;-80
2023/04/19 11:46:07;;;;;;;16.52;12.48;;;11.10;93.90;;;;;;5089481;28;20021;-79
2023/04/19 11:48:33;;;;;;;20.83;12.90;;;10.90;94.70;;;;;;5102955;28;20032;-79
2023/04/19 11:51:00;;;;;;;21.20;14.68;;;10.50;95.60;;;;;;5102192;28;20139;-79
2023/04/19 11:53:31;;;;;;;18.48;13.07;;;10.00;96.70;;;;;;5092142;28;20020;-77
2023/04/19 11:56:04;;;;;;;18.40;13.82;;;9.50;98.90;;;;;;5113513;28;20061;-79
2023/04/19 11:58:43;;;;;;;20.00;14.30;;;9.30;99.90;;;;;;5117605;28;20024;-79
2023/04/19 12:01:14;;;;;;;22.05;15.60;;;9.10;99.90;;;;;;5116086;28;20012;-78
2023/04/19 12:03:45;;;;;;;19.02;14.63;;;9.00;99.90;;;;;;5107813;28;20013;-77
2023/04/19 12:06:13;;;;;;;18.50;13.10;;;8.90;99.90;;;;;;5106307;28;20016;-79
2023/04/19 12:08:46;;;;;;;20.38;14.70;;;8.90;99.90;;;;;;5110668;28;20012;-79
2023/04/19 12:11:12;;;;;;;17.25;12.48;;;8.80;99.90;;;;;;5109794;28;20016;-80
2023/04/19 12:13:39;;;;;;;18.63;13.43;;;8.80;99.90;;;;;;5107375;28;20092;-80
2023/04/19 12:16:06;;;;;;;20.00;14.48;;;8.70;99.90;;;;;;5104464;28;20127;-81
2023/04/19 12:18:47;;;;;;;24.55;17.67;;;8.70;99.90;;;;;;5104322;28;20089;-78
2023/04/19 12:21:33;;;;;;;23.60;16.15;;;8.60;99.90;;;;;;5103868;28;20063;-81
2023/04/19 12:24:00;;;;;;;23.73;17.00;;;8.50;99.90;;;;;;5103271;28;20119;-80
2023/04/19 12:26:28;;;;;;;24.45;17.25;;;8.50;99.90;;;;;;5102438;28;20146;-79
2023/04/19 12:28:55;;;;;;;26.00;18.63;;;8.50;99.90;;;;;;5104004;28;20593;-81
2023/04/19 12:31:21;;;;;;;31.35;20.30;;;8.40;99.90;;;;;;5100253;28;20017;-81
2023/04/19 12:33:50;;;;;;;31.00;21.13;;;8.50;99.90;;;;;;5084389;28;20087;-83
2023/04/19 12:36:15;;;;;;;30.65;20.85;;;8.50;99.90;;;;;;5091024;28;20075;-80
2023/04/19 12:38:42;;;;;;;27.17;17.85;;;8.50;99.90;;;;;;5084401;28;20032;-80